createdAt,value
2018-11-01T00:00:57.907Z,2.60
2018-11-01T00:03:25.153Z,4.47
2018-11-01T00:05:52.513Z,2.27
2018-11-01T00:08:19.722Z,2.90
2018-11-01T00:10:46.952Z,2.90
2018-11-01T00:13:14.166Z,3.17
2018-11-01T00:15:41.386Z,2.40
2018-11-01T00:18:08.604Z,2.17
2018-11-01T00:20:35.830Z,2.73
2018-11-01T00:23:03.171Z,2.00
2018-11-01T00:25:30.374Z,1.80
2018-11-01T00:27:57.577Z,1.70
2018-11-01T00:30:24.861Z,1.40
2018-11-01T00:32:52.084Z,1.70
2018-11-01T00:35:19.306Z,2.07
2018-11-01T00:37:46.559Z,1.53
2018-11-01T00:40:14.552Z,1.93
2018-11-01T00:42:42.553Z,1.70
2018-11-01T00:45:10.630Z,2.00
2018-11-01T00:47:37.990Z,2.77
2018-11-01T00:50:07.080Z,2.30
2018-11-01T00:52:34.372Z,1.70
2018-11-01T00:55:01.610Z,1.93
2018-11-01T00:57:28.843Z,1.77
2018-11-01T00:59:56.078Z,1.57
2018-11-01T01:02:23.327Z,1.77
2018-11-01T01:04:50.571Z,1.80
2018-11-01T01:07:17.864Z,2.00
2018-11-01T01:09:45.115Z,1.80
2018-11-01T01:12:12.566Z,1.63
2018-11-01T01:14:39.873Z,3.43
2018-11-01T01:17:07.098Z,1.70
2018-11-01T01:19:34.414Z,1.80
2018-11-01T01:22:01.687Z,2.40
2018-11-01T01:24:29.106Z,3.50
2018-11-01T01:26:56.541Z,2.30
2018-11-01T01:29:24.120Z,2.10
2018-11-01T01:31:51.542Z,2.70
2018-11-01T01:34:19.017Z,2.77
2018-11-01T01:36:46.445Z,2.87
2018-11-01T01:39:13.866Z,2.40
2018-11-01T01:41:41.254Z,3.50
2018-11-01T01:44:08.867Z,4.27
2018-11-01T01:46:36.294Z,2.93
2018-11-01T01:49:04.340Z,3.17
2018-11-01T01:54:15.335Z,3.43
2018-11-01T01:56:42.543Z,3.60
2018-11-01T01:59:09.887Z,3.80
2018-11-01T02:01:37.114Z,3.70
2018-11-01T02:04:04.906Z,3.70
2018-11-01T02:06:32.121Z,3.87
2018-11-01T02:08:59.355Z,5.93
2018-11-01T02:11:26.576Z,3.67
2018-11-01T02:13:53.826Z,3.23
2018-11-01T02:16:21.049Z,4.40
2018-11-01T02:18:48.329Z,4.00
2018-11-01T02:21:15.555Z,4.37
2018-11-01T02:23:42.790Z,3.80
2018-11-01T02:26:10.159Z,3.63
2018-11-01T02:28:37.374Z,18.47
2018-11-01T02:31:04.653Z,6.03
2018-11-01T02:33:31.915Z,4.77
2018-11-01T02:35:59.167Z,4.80
2018-11-01T02:38:26.408Z,4.30
2018-11-01T02:40:53.643Z,3.70
2018-11-01T02:43:20.874Z,3.87
2018-11-01T02:45:48.102Z,4.23
2018-11-01T02:48:15.450Z,5.93
2018-11-01T02:50:42.687Z,4.67
2018-11-01T02:53:10.114Z,5.93
2018-11-01T02:55:37.525Z,4.23
2018-11-01T02:58:05.367Z,4.70
2018-11-01T03:00:32.803Z,5.10
2018-11-01T03:03:00.218Z,4.70
2018-11-01T03:05:27.638Z,5.03
2018-11-01T03:07:55.059Z,5.40
2018-11-01T03:10:22.462Z,4.47
2018-11-01T03:12:49.888Z,4.50
2018-11-01T03:15:17.391Z,8.73
2018-11-01T03:17:44.818Z,5.97
2018-11-01T03:20:12.586Z,4.67
2018-11-01T03:22:40.273Z,4.80
2018-11-01T03:25:08.018Z,5.13
2018-11-01T03:27:35.553Z,4.50
2018-11-01T03:30:03.048Z,4.93
2018-11-01T03:32:30.462Z,4.27
2018-11-01T03:34:57.943Z,5.33
2018-11-01T03:37:25.380Z,9.33
2018-11-01T03:39:52.795Z,4.03
2018-11-01T03:42:20.218Z,4.03
2018-11-01T03:44:47.634Z,4.20
2018-11-01T03:47:15.206Z,4.60
2018-11-01T03:49:42.627Z,4.47
2018-11-01T03:52:10.025Z,4.73
2018-11-01T03:54:37.515Z,4.23
2018-11-01T03:57:04.903Z,4.97
2018-11-01T03:59:32.374Z,4.40
2018-11-01T04:01:59.793Z,4.77
2018-11-01T04:04:27.217Z,4.23
2018-11-01T04:06:54.641Z,7.03
2018-11-01T04:09:22.081Z,4.47
2018-11-01T04:11:49.517Z,4.77
2018-11-01T04:14:17.131Z,4.00
2018-11-01T04:16:44.608Z,4.33
2018-11-01T04:19:11.966Z,4.10
2018-11-01T04:21:39.539Z,4.80
2018-11-01T04:24:07.002Z,8.33
2018-11-01T04:26:34.414Z,5.17
2018-11-01T04:29:01.939Z,4.53
2018-11-01T04:31:29.321Z,4.23
2018-11-01T04:33:56.778Z,4.00
2018-11-01T04:36:24.391Z,4.47
2018-11-01T04:38:51.803Z,4.30
2018-11-01T04:41:19.209Z,4.57
2018-11-01T04:43:46.610Z,4.07
2018-11-01T04:46:14.077Z,4.77
2018-11-01T04:48:41.490Z,4.20
2018-11-01T04:51:08.873Z,3.67
2018-11-01T04:53:36.286Z,3.60
2018-11-01T04:56:03.734Z,3.93
2018-11-01T04:58:31.125Z,5.07
2018-11-01T05:00:58.598Z,3.30
2018-11-01T05:03:25.989Z,3.10
2018-11-01T05:05:53.426Z,4.30
2018-11-01T05:08:20.862Z,3.93
2018-11-01T05:10:48.253Z,4.10
2018-11-01T05:13:15.667Z,2.77
2018-11-01T05:15:43.114Z,3.33
2018-11-01T05:18:10.521Z,2.57
2018-11-01T05:20:37.934Z,2.43
2018-11-01T05:23:05.358Z,3.70
2018-11-01T05:25:32.894Z,2.50
2018-11-01T05:28:00.332Z,3.00
2018-11-01T05:30:27.762Z,2.63
2018-11-01T05:32:55.178Z,2.17
2018-11-01T05:35:22.597Z,5.03
2018-11-01T05:37:50.095Z,4.23
2018-11-01T05:40:17.499Z,5.30
2018-11-01T05:42:44.906Z,3.03
2018-11-01T05:45:12.782Z,3.30
2018-11-01T05:47:40.302Z,2.90
2018-11-01T05:50:07.762Z,2.93
2018-11-01T05:52:35.219Z,3.40
2018-11-01T05:55:02.653Z,3.43
2018-11-01T05:57:30.062Z,3.77
2018-11-01T05:59:57.496Z,3.10
2018-11-01T06:02:28.497Z,2.67
2018-11-01T06:04:55.929Z,3.17
2018-11-01T06:07:27.954Z,3.17
2018-11-01T06:09:55.333Z,2.53
2018-11-01T06:12:22.749Z,2.57
2018-11-01T06:14:50.132Z,3.23
2018-11-01T06:17:17.695Z,2.70
2018-11-01T06:19:45.191Z,3.20
2018-11-01T06:22:12.678Z,5.60
2018-11-01T06:24:40.416Z,2.70
2018-11-01T06:27:08.514Z,2.67
2018-11-01T06:29:36.043Z,4.00
2018-11-01T06:32:03.579Z,3.13
2018-11-01T06:34:31.999Z,3.23
2018-11-01T06:36:59.834Z,2.97
2018-11-01T06:39:27.337Z,3.67
2018-11-01T06:41:54.819Z,3.90
2018-11-01T06:44:22.296Z,3.80
2018-11-01T06:46:49.816Z,4.07
2018-11-01T06:49:18.313Z,3.90
2018-11-01T06:51:45.991Z,2.90
2018-11-01T06:54:13.567Z,3.50
2018-11-01T06:56:41.047Z,2.50
2018-11-01T06:59:08.588Z,2.90
2018-11-01T07:01:36.066Z,3.13
2018-11-01T07:04:03.718Z,4.03
2018-11-01T07:06:31.274Z,2.70
2018-11-01T07:08:58.783Z,2.37
2018-11-01T07:11:26.275Z,3.30
2018-11-01T07:13:53.654Z,2.33
2018-11-01T07:16:21.260Z,2.20
2018-11-01T07:18:48.746Z,2.80
2018-11-01T07:21:16.294Z,2.23
2018-11-01T07:23:43.738Z,4.10
2018-11-01T07:26:11.333Z,2.90
2018-11-01T07:28:38.658Z,2.63
2018-11-01T07:31:06.352Z,4.20
2018-11-01T07:33:33.805Z,3.60
2018-11-01T07:36:01.271Z,2.70
2018-11-01T07:38:28.676Z,3.17
2018-11-01T07:40:56.197Z,3.20
2018-11-01T07:43:23.654Z,3.50
2018-11-01T07:45:51.087Z,4.30
2018-11-01T07:48:18.546Z,3.33
2018-11-01T07:50:46.017Z,4.43
2018-11-01T07:53:13.435Z,5.10
2018-11-01T07:55:40.874Z,3.30
2018-11-01T07:58:08.374Z,3.13
2018-11-01T08:00:35.831Z,4.57
2018-11-01T08:03:03.298Z,3.40
2018-11-01T08:05:30.759Z,4.13
2018-11-01T08:07:58.242Z,3.90
2018-11-01T08:10:25.662Z,4.93
2018-11-01T08:12:53.141Z,3.90
2018-11-01T08:15:21.119Z,3.50
2018-11-01T08:17:48.604Z,3.93
2018-11-01T08:20:16.809Z,3.97
2018-11-01T08:22:44.144Z,7.90
2018-11-01T08:25:12.347Z,4.50
2018-11-01T08:27:40.737Z,5.03
2018-11-01T08:30:09.984Z,5.30
2018-11-01T08:32:37.496Z,4.70
2018-11-01T08:35:05.326Z,5.63
2018-11-01T08:37:32.844Z,5.70
2018-11-01T08:40:00.362Z,5.80
2018-11-01T08:42:27.839Z,9.63
2018-11-01T08:44:55.298Z,4.63
2018-11-01T08:47:22.779Z,6.10
2018-11-01T08:49:50.244Z,4.70
2018-11-01T08:52:17.801Z,5.70
2018-11-01T08:54:45.268Z,5.30
2018-11-01T08:57:12.890Z,8.20
2018-11-01T08:59:40.350Z,5.50
2018-11-01T09:02:07.870Z,5.77
2018-11-01T09:04:35.368Z,5.60
2018-11-01T09:07:02.850Z,6.70
2018-11-01T09:09:30.307Z,7.40
2018-11-01T09:11:57.758Z,6.10
2018-11-01T09:14:25.301Z,6.03
2018-11-01T09:16:52.724Z,6.30
2018-11-01T09:19:20.073Z,6.37
2018-11-01T09:21:47.516Z,5.70
2018-11-01T09:24:14.863Z,5.80
2018-11-01T09:26:42.141Z,10.63
2018-11-01T09:29:09.389Z,7.10
2018-11-01T09:31:36.609Z,6.80
2018-11-01T09:34:03.915Z,6.50
2018-11-01T09:36:31.156Z,7.10
2018-11-01T09:38:58.400Z,7.97
2018-11-01T09:41:25.868Z,5.90
2018-11-01T09:43:53.082Z,6.67
2018-11-01T09:46:20.617Z,5.90
2018-11-01T09:48:47.774Z,6.30
2018-11-01T09:51:14.994Z,5.83
2018-11-01T09:53:42.230Z,6.97
2018-11-01T09:56:09.569Z,7.27
2018-11-01T09:58:36.711Z,6.90
2018-11-01T10:01:04.024Z,7.27
2018-11-01T10:03:31.310Z,6.77
2018-11-01T10:05:58.660Z,6.93
2018-11-01T10:08:26.286Z,7.80
2018-11-01T10:10:53.498Z,8.87
2018-11-01T10:13:20.705Z,7.37
2018-11-01T10:15:48.248Z,6.87
2018-11-01T10:18:15.550Z,8.50
2018-11-01T10:20:42.397Z,7.47
2018-11-01T10:23:09.675Z,9.00
2018-11-01T10:25:36.931Z,7.60
2018-11-01T10:28:04.463Z,8.13
2018-11-01T10:30:31.669Z,7.97
2018-11-01T10:32:58.889Z,7.90
2018-11-01T10:35:26.272Z,7.67
2018-11-01T10:37:53.553Z,8.00
2018-11-01T10:40:21.080Z,7.60
2018-11-01T10:42:48.369Z,7.07
2018-11-01T10:45:15.677Z,6.97
2018-11-01T10:47:42.971Z,7.90
2018-11-01T10:50:13.450Z,8.00
2018-11-01T10:52:40.825Z,8.70
2018-11-01T10:55:09.458Z,8.47
2018-11-01T10:57:36.695Z,11.33
2018-11-01T11:00:04.560Z,10.40
2018-11-01T11:02:31.766Z,9.70
2018-11-01T11:04:59.006Z,10.50
2018-11-01T11:07:26.287Z,10.50
2018-11-01T11:09:55.950Z,8.63
2018-11-01T11:12:23.425Z,9.63
2018-11-01T11:14:50.881Z,8.67
2018-11-01T11:17:18.295Z,8.83
2018-11-01T11:19:45.767Z,7.57
2018-11-01T11:22:13.174Z,7.07
2018-11-01T11:24:40.566Z,7.60
2018-11-01T11:27:09.177Z,7.47
2018-11-01T11:29:36.701Z,7.77
2018-11-01T11:32:04.350Z,6.93
2018-11-01T11:34:31.938Z,6.40
2018-11-01T11:36:59.419Z,6.83
2018-11-01T11:39:26.911Z,7.60
2018-11-01T11:41:54.365Z,7.80
2018-11-01T11:44:21.769Z,12.47
2018-11-01T11:46:49.282Z,8.80
2018-11-01T11:49:16.880Z,6.83
2018-11-01T11:51:44.302Z,7.57
2018-11-01T11:54:11.745Z,7.83
2018-11-01T11:56:39.187Z,7.97
2018-11-01T11:59:06.615Z,8.80
2018-11-01T12:01:34.055Z,7.73
2018-11-01T12:04:01.567Z,9.20
2018-11-01T12:06:29.029Z,10.50
2018-11-01T12:08:56.426Z,8.60
2018-11-01T12:11:23.945Z,8.70
2018-11-01T12:13:53.281Z,9.70
2018-11-01T12:16:20.935Z,9.07
2018-11-01T12:18:48.430Z,7.93
2018-11-01T12:21:15.945Z,7.53
2018-11-01T12:23:43.693Z,5.80
2018-11-01T12:26:11.086Z,5.80
2018-11-01T12:28:38.776Z,6.63
2018-11-01T12:31:06.350Z,5.30
2018-11-01T12:33:34.229Z,5.50
2018-11-01T12:36:01.718Z,5.80
2018-11-01T12:38:29.158Z,6.80
2018-11-01T12:40:56.569Z,7.07
2018-11-01T12:43:24.123Z,7.30
2018-11-01T12:45:51.526Z,8.27
2018-11-01T12:48:19.026Z,10.43
2018-11-01T12:50:46.545Z,9.03
2018-11-01T12:53:13.994Z,11.27
2018-11-01T12:55:41.450Z,10.80
2018-11-01T12:58:10.630Z,8.70
2018-11-01T13:00:38.118Z,9.60
2018-11-01T13:03:05.693Z,9.10
2018-11-01T13:05:33.142Z,9.93
2018-11-01T13:08:00.600Z,10.40
2018-11-01T13:10:28.144Z,11.33
2018-11-01T13:12:55.702Z,13.40
2018-11-01T13:15:23.335Z,12.33
2018-11-01T13:17:50.828Z,11.87
2018-11-01T13:20:18.340Z,12.37
2018-11-01T13:22:45.877Z,11.43
2018-11-01T13:25:13.391Z,7.90
2018-11-01T13:27:40.896Z,6.70
2018-11-01T13:30:10.135Z,7.23
2018-11-01T13:32:37.592Z,5.13
2018-11-01T13:35:05.515Z,5.27
2018-11-01T13:37:32.824Z,5.00
2018-11-01T13:40:00.521Z,4.77
2018-11-01T13:42:27.917Z,4.80
2018-11-01T13:44:55.471Z,4.67
2018-11-01T13:47:23.099Z,5.53
2018-11-01T13:49:50.594Z,6.53
2018-11-01T13:52:18.123Z,5.23
2018-11-01T13:54:45.682Z,4.40
2018-11-01T13:57:13.112Z,4.93
2018-11-01T13:59:40.686Z,5.30
2018-11-01T14:02:08.167Z,7.30
2018-11-01T14:07:18.291Z,5.27
2018-11-01T14:09:46.290Z,4.83
2018-11-01T14:12:13.794Z,6.57
2018-11-01T14:14:41.611Z,5.00
2018-11-01T14:17:08.952Z,7.90
2018-11-01T14:19:37.136Z,6.70
2018-11-01T14:22:05.194Z,5.93
2018-11-01T14:24:37.845Z,5.90
2018-11-01T14:27:05.485Z,6.90
2018-11-01T14:29:32.881Z,7.13
2018-11-01T14:32:00.364Z,9.60
2018-11-01T14:34:27.953Z,11.30
2018-11-01T14:36:55.412Z,10.83
2018-11-01T14:39:22.920Z,9.20
2018-11-01T14:41:50.382Z,9.50
2018-11-01T14:44:17.964Z,8.40
2018-11-01T14:46:45.549Z,7.90
2018-11-01T14:49:14.196Z,9.00
2018-11-01T14:51:41.958Z,7.17
2018-11-01T14:54:10.339Z,7.87
2018-11-01T14:56:40.905Z,8.23
2018-11-01T14:59:08.722Z,7.60
2018-11-01T15:01:34.538Z,6.53
2018-11-01T15:04:02.037Z,7.50
2018-11-01T15:06:29.614Z,7.47
2018-11-01T15:08:57.187Z,7.43
2018-11-01T15:11:24.928Z,8.40
2018-11-01T15:13:52.607Z,8.57
2018-11-01T15:16:20.158Z,9.37
2018-11-01T15:18:49.074Z,8.20
2018-11-01T15:21:16.660Z,7.47
2018-11-01T15:23:44.309Z,8.90
2018-11-01T15:26:12.006Z,7.50
2018-11-01T15:28:39.606Z,8.37
2018-11-01T15:31:08.361Z,9.30
2018-11-01T15:33:36.213Z,8.63
2018-11-01T15:36:03.780Z,9.67
2018-11-01T15:38:39.005Z,8.93
2018-11-01T15:41:09.776Z,10.20
2018-11-01T15:43:37.407Z,9.20
2018-11-01T15:46:05.259Z,8.67
2018-11-01T15:48:33.059Z,9.37
2018-11-01T15:51:00.993Z,9.30
2018-11-01T15:53:28.577Z,10.40
2018-11-01T15:55:56.309Z,9.20
2018-11-01T15:58:24.293Z,10.03
2018-11-01T16:00:51.851Z,9.80
2018-11-01T16:03:19.333Z,10.73
2018-11-01T16:05:46.775Z,10.07
2018-11-01T16:08:14.471Z,12.90
2018-11-01T16:10:42.042Z,11.93
2018-11-01T16:13:09.727Z,13.43
2018-11-01T16:15:37.233Z,14.27
2018-11-01T16:18:04.933Z,13.10
2018-11-01T16:20:32.442Z,12.73
2018-11-01T16:22:59.939Z,12.80
2018-11-01T16:25:27.402Z,12.87
2018-11-01T16:27:54.926Z,12.23
2018-11-01T16:30:22.418Z,13.20
2018-11-01T16:32:49.942Z,10.97
2018-11-01T16:35:17.506Z,12.70
2018-11-01T16:37:45.017Z,12.40
2018-11-01T16:40:12.525Z,12.63
2018-11-01T16:42:40.114Z,11.63
2018-11-01T16:45:09.229Z,12.10
2018-11-01T16:47:36.723Z,11.33
2018-11-01T16:50:05.036Z,14.27
2018-11-01T16:52:32.524Z,12.23
2018-11-01T16:55:00.131Z,13.73
2018-11-01T16:57:27.651Z,14.43
2018-11-01T16:59:55.042Z,12.57
2018-11-01T17:02:22.745Z,11.07
2018-11-01T17:04:50.290Z,10.27
2018-11-01T17:07:17.731Z,12.67
2018-11-01T17:09:45.066Z,10.97
2018-11-01T17:12:12.452Z,10.80
2018-11-01T17:14:39.776Z,10.20
2018-11-01T17:17:07.088Z,10.00
2018-11-01T17:19:34.383Z,10.13
2018-11-01T17:22:01.740Z,10.20
2018-11-01T17:24:29.104Z,11.27
2018-11-01T17:26:56.651Z,11.30
2018-11-01T17:29:23.960Z,9.13
2018-11-01T17:31:51.237Z,10.80
2018-11-01T17:34:18.654Z,10.53
2018-11-01T17:36:45.982Z,11.77
2018-11-01T17:39:13.462Z,15.10
2018-11-01T17:41:40.789Z,13.97
2018-11-01T17:44:08.117Z,11.13
2018-11-01T17:46:35.363Z,10.57
2018-11-01T17:49:02.660Z,11.27
2018-11-01T17:51:30.117Z,12.13
2018-11-01T17:53:57.282Z,11.83
2018-11-01T17:56:24.599Z,11.63
2018-11-01T17:58:51.883Z,11.70
2018-11-01T18:01:19.175Z,11.77
2018-11-01T18:03:46.436Z,10.77
2018-11-01T18:06:13.733Z,9.67
2018-11-01T18:08:41.042Z,9.53
2018-11-01T18:11:08.254Z,10.40
2018-11-01T18:13:35.571Z,12.17
2018-11-01T18:16:02.982Z,10.80
2018-11-01T18:18:30.222Z,12.83
2018-11-01T18:20:57.475Z,10.70
2018-11-01T18:23:24.832Z,10.43
2018-11-01T18:25:52.192Z,10.23
2018-11-01T18:28:20.117Z,11.80
2018-11-01T18:30:47.392Z,11.33
2018-11-01T18:33:14.764Z,10.17
2018-11-01T18:35:42.002Z,11.70
2018-11-01T18:38:09.264Z,10.90
2018-11-01T18:40:36.556Z,12.30
2018-11-01T18:43:04.157Z,11.10
2018-11-01T18:45:31.418Z,11.53
2018-11-01T18:47:58.700Z,11.90
2018-11-01T18:50:25.980Z,12.10
2018-11-01T18:52:53.268Z,9.90
2018-11-01T18:55:20.538Z,11.00
2018-11-01T18:57:47.782Z,10.67
2018-11-01T19:00:16.483Z,11.30
2018-11-01T19:02:44.015Z,11.17
2018-11-01T19:05:11.871Z,13.27
2018-11-01T19:07:39.754Z,11.10
2018-11-01T19:10:07.914Z,12.30
2018-11-01T19:12:35.428Z,12.43
2018-11-01T19:15:02.992Z,11.80
2018-11-01T19:17:30.490Z,11.83
2018-11-01T19:19:57.914Z,11.43
2018-11-01T19:22:25.396Z,10.40
2018-11-01T19:24:52.926Z,9.90
2018-11-01T19:27:20.782Z,8.87
2018-11-01T19:29:47.982Z,10.50
2018-11-01T19:32:15.529Z,11.27
2018-11-01T19:34:43.154Z,9.77
2018-11-01T19:37:10.581Z,8.30
2018-11-01T19:39:39.139Z,9.20
2018-11-01T19:42:06.856Z,9.13
2018-11-01T19:44:34.438Z,8.13
2018-11-01T19:47:01.955Z,8.53
2018-11-01T19:49:29.522Z,8.43
2018-11-01T19:51:56.963Z,7.67
2018-11-01T19:54:24.576Z,7.80
2018-11-01T19:56:52.115Z,6.70
2018-11-01T19:59:19.611Z,6.63
2018-11-01T20:01:47.125Z,6.43
2018-11-01T20:04:14.721Z,5.90
2018-11-01T20:06:42.114Z,6.40
2018-11-01T20:09:13.295Z,6.63
2018-11-01T20:11:40.796Z,6.07
2018-11-01T20:14:09.432Z,7.93
2018-11-01T20:16:38.975Z,5.73
2018-11-01T20:19:06.601Z,7.80
2018-11-01T20:21:34.070Z,6.00
2018-11-01T20:24:02.590Z,6.20
2018-11-01T20:26:30.062Z,5.63
2018-11-01T20:28:57.596Z,5.40
2018-11-01T20:31:25.188Z,5.93
2018-11-01T20:33:52.533Z,5.67
2018-11-01T20:36:19.971Z,5.83
2018-11-01T20:38:47.509Z,6.90
2018-11-01T20:41:14.946Z,5.57
2018-11-01T20:43:42.406Z,5.93
2018-11-01T20:46:09.942Z,6.43
2018-11-01T20:48:37.430Z,5.50
2018-11-01T20:51:04.899Z,6.30
2018-11-01T20:53:32.382Z,7.10
2018-11-01T20:55:59.858Z,6.80
2018-11-01T20:58:28.995Z,6.00
2018-11-01T21:00:56.605Z,6.60
2018-11-01T21:03:24.079Z,6.40
2018-11-01T21:05:51.572Z,6.60
2018-11-01T21:08:19.167Z,6.50
2018-11-01T21:10:46.604Z,7.30
2018-11-01T21:13:13.969Z,7.10
2018-11-01T21:15:41.459Z,6.90
2018-11-01T21:18:08.915Z,7.23
2018-11-01T21:20:36.400Z,9.47
2018-11-01T21:23:04.154Z,7.20
2018-11-01T21:25:31.600Z,9.20
2018-11-01T21:27:59.041Z,8.70
2018-11-01T21:30:26.443Z,9.53
2018-11-01T21:32:53.901Z,8.77
2018-11-01T21:35:21.487Z,9.43
2018-11-01T21:37:48.901Z,9.43
2018-11-01T21:40:16.301Z,10.60
2018-11-01T21:42:43.846Z,9.17
2018-11-01T21:45:12.577Z,9.80
2018-11-01T21:47:40.322Z,10.97
2018-11-01T21:50:07.905Z,9.67
2018-11-01T21:52:35.551Z,9.60
2018-11-01T21:55:03.049Z,10.17
2018-11-01T21:57:30.693Z,10.93
2018-11-01T21:59:58.157Z,9.50
2018-11-01T22:02:25.642Z,10.77
2018-11-01T22:04:53.286Z,8.90
2018-11-01T22:07:20.889Z,9.70
2018-11-01T22:09:48.445Z,9.67
2018-11-01T22:12:15.907Z,9.20
2018-11-01T22:14:43.391Z,8.90
2018-11-01T22:17:10.736Z,8.60
2018-11-01T22:19:37.982Z,9.20
2018-11-01T22:22:05.264Z,9.77
2018-11-01T22:24:32.595Z,8.90
2018-11-01T22:26:59.958Z,9.13
2018-11-01T22:29:27.234Z,7.80
2018-11-01T22:31:54.527Z,9.57
2018-11-01T22:34:21.931Z,8.70
2018-11-01T22:36:49.606Z,8.30
2018-11-01T22:39:17.745Z,9.57
2018-11-01T22:41:45.482Z,8.70
2018-11-01T22:44:12.935Z,8.77
2018-11-01T22:46:40.538Z,8.87
2018-11-01T22:49:08.062Z,8.60
2018-11-01T22:51:35.742Z,8.10
2018-11-01T22:54:03.690Z,8.83
2018-11-01T22:56:31.122Z,8.10
2018-11-01T22:58:58.808Z,8.67
2018-11-01T23:01:26.464Z,8.70
2018-11-01T23:03:53.928Z,7.30
2018-11-01T23:06:22.438Z,9.10
2018-11-01T23:08:49.903Z,8.40
2018-11-01T23:11:17.534Z,7.93
2018-11-01T23:13:45.185Z,8.90
2018-11-01T23:16:12.667Z,8.37
2018-11-01T23:18:41.244Z,9.30
2018-11-01T23:21:08.812Z,9.17
2018-11-01T23:23:36.092Z,8.23
2018-11-01T23:26:03.528Z,11.43
2018-11-01T23:28:30.861Z,8.10
2018-11-01T23:30:58.463Z,8.40
2018-11-01T23:33:25.742Z,9.70
2018-11-01T23:35:54.486Z,7.73
2018-11-01T23:38:27.969Z,9.00
2018-11-01T23:41:01.232Z,8.00
2018-11-01T23:43:34.233Z,8.50
2018-11-01T23:46:07.234Z,8.93
2018-11-01T23:48:34.077Z,12.63
2018-11-01T23:51:07.807Z,8.63
2018-11-01T23:53:38.793Z,8.20
2018-11-01T23:56:06.270Z,8.30
2018-11-01T23:58:33.864Z,8.80
